sensor_id;sensor_type;location;lat;lon;timestamp;pressure;altitude;pressure_sealevel;temperature;humidity
16595;BME280;8410;52.532;13.336;2024-03-23T00:56:05;100318.84;;;18.80;57.31
16595;BME280;8410;52.532;13.336;2024-03-23T00:58:32;100326.31;;;17.92;58.10
16595;BME280;8410;52.532;13.336;2024-03-23T01:00:57;100318.25;;;18.36;58.49
16595;BME280;8410;52.532;13.336;2024-03-23T01:03:24;100320.59;;;18.14;58.66
16595;BME280;8410;52.532;13.336;2024-03-23T01:05:50;100327.03;;;17.21;61.42
16595;BME280;8410;52.532;13.336;2024-03-23T01:08:18;100320.88;;;18.36;58.83
16595;BME280;8410;52.532;13.336;2024-03-23T01:10:53;100307.16;;;18.62;58.42
16595;BME280;8410;52.532;13.336;2024-03-23T01:13:20;100310.09;;;17.44;61.37
16595;BME280;8410;52.532;13.336;2024-03-23T01:15:48;100315.00;;;17.56;60.90
16595;BME280;8410;52.532;13.336;2024-03-23T01:18:15;100304.66;;;18.24;58.46
16595;BME280;8410;52.532;13.336;2024-03-23T01:20:40;100301.25;;;18.55;59.00
16595;BME280;8410;52.532;13.336;2024-03-23T01:23:07;100301.41;;;19.11;56.91
16595;BME280;8410;52.532;13.336;2024-03-23T01:25:32;100298.13;;;18.75;56.89
16595;BME280;8410;52.532;13.336;2024-03-23T01:28:00;100296.81;;;19.20;56.90
16595;BME280;8410;52.532;13.336;2024-03-23T01:30:26;100290.03;;;19.42;56.18
16595;BME280;8410;52.532;13.336;2024-03-23T01:32:52;100284.28;;;19.31;56.55
16595;BME280;8410;52.532;13.336;2024-03-23T01:35:18;100277.19;;;19.63;55.79
16595;BME280;8410;52.532;13.336;2024-03-23T01:37:44;100275.09;;;19.46;56.02
16595;BME280;8410;52.532;13.336;2024-03-23T01:40:11;100266.94;;;19.00;55.79
16595;BME280;8410;52.532;13.336;2024-03-23T01:42:38;100250.13;;;19.10;56.81
16595;BME280;8410;52.532;13.336;2024-03-23T01:45:07;100251.59;;;18.28;58.16
16595;BME280;8410;52.532;13.336;2024-03-23T01:47:35;100254.81;;;18.05;58.88
16595;BME280;8410;52.532;13.336;2024-03-23T01:50:00;100251.66;;;18.57;57.83
16595;BME280;8410;52.532;13.336;2024-03-23T01:52:27;100245.78;;;18.50;57.24
16595;BME280;8410;52.532;13.336;2024-03-23T01:54:53;100236.03;;;18.25;58.02
16595;BME280;8410;52.532;13.336;2024-03-23T01:57:19;100243.44;;;18.70;57.59
16595;BME280;8410;52.532;13.336;2024-03-23T01:59:46;100238.78;;;18.82;56.60
16595;BME280;8410;52.532;13.336;2024-03-23T02:02:14;100233.84;;;18.72;56.90
16595;BME280;8410;52.532;13.336;2024-03-23T02:04:39;100231.16;;;18.76;57.43
16595;BME280;8410;52.532;13.336;2024-03-23T02:07:06;100231.84;;;18.82;58.20
16595;BME280;8410;52.532;13.336;2024-03-23T02:09:32;100229.03;;;18.90;55.89
16595;BME280;8410;52.532;13.336;2024-03-23T02:12:01;100235.72;;;18.97;57.08
16595;BME280;8410;52.532;13.336;2024-03-23T02:14:27;100230.41;;;19.00;56.41
16595;BME280;8410;52.532;13.336;2024-03-23T02:16:53;100238.25;;;19.00;56.90
16595;BME280;8410;52.532;13.336;2024-03-23T02:19:20;100242.00;;;18.91;56.28
16595;BME280;8410;52.532;13.336;2024-03-23T02:21:47;100229.13;;;19.15;56.73
16595;BME280;8410;52.532;13.336;2024-03-23T02:24:14;100221.59;;;19.32;55.91
16595;BME280;8410;52.532;13.336;2024-03-23T02:26:40;100217.44;;;19.80;55.43
16595;BME280;8410;52.532;13.336;2024-03-23T02:29:06;100205.56;;;19.71;54.96
16595;BME280;8410;52.532;13.336;2024-03-23T02:31:34;100202.63;;;19.27;55.70
16595;BME280;8410;52.532;13.336;2024-03-23T02:34:00;100202.91;;;19.46;55.65
16595;BME280;8410;52.532;13.336;2024-03-23T02:36:26;100194.84;;;19.26;56.43
16595;BME280;8410;52.532;13.336;2024-03-23T02:38:52;100185.81;;;19.36;55.63
16595;BME280;8410;52.532;13.336;2024-03-23T02:41:20;100183.66;;;19.22;56.40
16595;BME280;8410;52.532;13.336;2024-03-23T02:43:48;100183.59;;;19.50;55.94
16595;BME280;8410;52.532;13.336;2024-03-23T02:46:15;100176.97;;;19.40;55.32
16595;BME280;8410;52.532;13.336;2024-03-23T02:48:40;100187.81;;;19.01;56.75
16595;BME280;8410;52.532;13.336;2024-03-23T02:51:07;100178.44;;;19.22;55.80
16595;BME280;8410;52.532;13.336;2024-03-23T02:53:33;100175.38;;;19.36;56.59
16595;BME280;8410;52.532;13.336;2024-03-23T02:56:00;100179.03;;;19.04;56.61
16595;BME280;8410;52.532;13.336;2024-03-23T02:58:27;100185.28;;;18.39;58.38
16595;BME280;8410;52.532;13.336;2024-03-23T03:00:53;100182.59;;;18.71;58.22
16595;BME280;8410;52.532;13.336;2024-03-23T03:03:19;100174.34;;;19.13;56.94
16595;BME280;8410;52.532;13.336;2024-03-23T03:05:45;100178.25;;;19.00;57.50
16595;BME280;8410;52.532;13.336;2024-03-23T03:08:11;100172.28;;;19.25;57.30
16595;BME280;8410;52.532;13.336;2024-03-23T03:10:38;100182.44;;;18.78;57.08
16595;BME280;8410;52.532;13.336;2024-03-23T03:13:03;100168.72;;;18.99;57.16
16595;BME280;8410;52.532;13.336;2024-03-23T03:15:31;100167.19;;;18.92;57.49
16595;BME280;8410;52.532;13.336;2024-03-23T03:17:57;100164.78;;;18.86;56.46
16595;BME280;8410;52.532;13.336;2024-03-23T03:20:23;100162.28;;;18.83;56.11
16595;BME280;8410;52.532;13.336;2024-03-23T03:22:49;100159.00;;;19.04;56.67
16595;BME280;8410;52.532;13.336;2024-03-23T03:25:16;100168.53;;;18.16;57.94
16595;BME280;8410;52.532;13.336;2024-03-23T03:27:41;100165.97;;;18.46;57.69
16595;BME280;8410;52.532;13.336;2024-03-23T03:30:09;100153.66;;;18.51;58.04
16595;BME280;8410;52.532;13.336;2024-03-23T03:32:36;100139.31;;;18.94;56.23
16595;BME280;8410;52.532;13.336;2024-03-23T03:35:03;100134.72;;;19.02;56.75
16595;BME280;8410;52.532;13.336;2024-03-23T03:37:28;100143.03;;;18.27;57.60
16595;BME280;8410;52.532;13.336;2024-03-23T03:39:55;100144.19;;;18.17;58.30
16595;BME280;8410;52.532;13.336;2024-03-23T03:42:20;100143.22;;;18.51;57.24
16595;BME280;8410;52.532;13.336;2024-03-23T03:44:47;100137.63;;;18.04;58.80
16595;BME280;8410;52.532;13.336;2024-03-23T03:47:13;100145.81;;;18.21;57.63
16595;BME280;8410;52.532;13.336;2024-03-23T03:49:40;100136.91;;;18.88;56.80
16595;BME280;8410;52.532;13.336;2024-03-23T03:52:06;100144.50;;;18.36;56.12
16595;BME280;8410;52.532;13.336;2024-03-23T03:54:33;100138.91;;;17.55;57.90
16595;BME280;8410;52.532;13.336;2024-03-23T03:56:58;100139.38;;;17.36;57.17
16595;BME280;8410;52.532;13.336;2024-03-23T03:59:25;100129.31;;;17.24;58.56
16595;BME280;8410;52.532;13.336;2024-03-23T04:01:51;100134.03;;;16.68;58.17
16595;BME280;8410;52.532;13.336;2024-03-23T04:04:17;100129.38;;;16.43;59.81
16595;BME280;8410;52.532;13.336;2024-03-23T04:06:44;100126.94;;;17.82;57.20
16595;BME280;8410;52.532;13.336;2024-03-23T04:09:11;100122.75;;;17.08;58.07
16595;BME280;8410;52.532;13.336;2024-03-23T04:11:36;100112.81;;;16.89;59.84
16595;BME280;8410;52.532;13.336;2024-03-23T04:14:03;100128.81;;;16.69;60.17
16595;BME280;8410;52.532;13.336;2024-03-23T04:16:31;100137.59;;;15.80;60.35
16595;BME280;8410;52.532;13.336;2024-03-23T04:18:58;100135.28;;;16.09;60.88
16595;BME280;8410;52.532;13.336;2024-03-23T04:21:23;100136.03;;;15.70;60.41
16595;BME280;8410;52.532;13.336;2024-03-23T04:23:51;100140.75;;;15.44;62.08
16595;BME280;8410;52.532;13.336;2024-03-23T04:26:17;100136.00;;;16.58;59.79
16595;BME280;8410;52.532;13.336;2024-03-23T04:28:43;100127.34;;;16.58;59.00
16595;BME280;8410;52.532;13.336;2024-03-23T04:31:09;100125.66;;;15.70;61.24
16595;BME280;8410;52.532;13.336;2024-03-23T04:33:36;100127.16;;;16.25;60.51
16595;BME280;8410;52.532;13.336;2024-03-23T04:36:01;100106.75;;;17.23;58.54
16595;BME280;8410;52.532;13.336;2024-03-23T04:38:28;100105.41;;;16.71;58.03
16595;BME280;8410;52.532;13.336;2024-03-23T04:40:56;100105.28;;;17.13;58.40
16595;BME280;8410;52.532;13.336;2024-03-23T04:43:23;100100.06;;;17.47;58.40
16595;BME280;8410;52.532;13.336;2024-03-23T04:45:49;100103.75;;;17.73;57.18
16595;BME280;8410;52.532;13.336;2024-03-23T04:48:19;100097.63;;;17.74;57.06
16595;BME280;8410;52.532;13.336;2024-03-23T04:50:45;100082.69;;;17.82;56.88
16595;BME280;8410;52.532;13.336;2024-03-23T04:53:12;100080.09;;;17.82;56.82
16595;BME280;8410;52.532;13.336;2024-03-23T04:55:38;100077.53;;;17.80;56.46
16595;BME280;8410;52.532;13.336;2024-03-23T04:58:05;100076.19;;;17.64;56.67
16595;BME280;8410;52.532;13.336;2024-03-23T05:00:32;100073.47;;;17.37;57.04
16595;BME280;8410;52.532;13.336;2024-03-23T05:02:58;100071.28;;;17.53;56.15
16595;BME280;8410;52.532;13.336;2024-03-23T05:05:24;100075.63;;;17.53;56.76
16595;BME280;8410;52.532;13.336;2024-03-23T05:07:50;100077.75;;;17.71;55.90
16595;BME280;8410;52.532;13.336;2024-03-23T05:10:16;100081.16;;;17.73;56.42
16595;BME280;8410;52.532;13.336;2024-03-23T05:12:42;100075.47;;;17.92;56.76
16595;BME280;8410;52.532;13.336;2024-03-23T05:15:11;100067.56;;;17.95;56.17
16595;BME280;8410;52.532;13.336;2024-03-23T05:17:38;100061.13;;;18.08;56.78
16595;BME280;8410;52.532;13.336;2024-03-23T05:20:05;100053.53;;;18.00;56.75
16595;BME280;8410;52.532;13.336;2024-03-23T05:22:35;100062.81;;;18.09;56.71
16595;BME280;8410;52.532;13.336;2024-03-23T05:25:01;100063.13;;;17.67;56.57
16595;BME280;8410;52.532;13.336;2024-03-23T05:27:30;100060.94;;;18.14;56.88
16595;BME280;8410;52.532;13.336;2024-03-23T05:29:56;100059.47;;;18.04;56.51
16595;BME280;8410;52.532;13.336;2024-03-23T05:32:23;100052.69;;;18.00;56.30
16595;BME280;8410;52.532;13.336;2024-03-23T05:34:50;100058.84;;;17.96;56.02
16595;BME280;8410;52.532;13.336;2024-03-23T05:37:21;100049.78;;;18.09;56.57
16595;BME280;8410;52.532;13.336;2024-03-23T05:39:47;100052.28;;;18.12;56.25
16595;BME280;8410;52.532;13.336;2024-03-23T05:42:15;100048.13;;;17.44;57.41
16595;BME280;8410;52.532;13.336;2024-03-23T05:44:43;100041.41;;;17.03;56.51
16595;BME280;8410;52.532;13.336;2024-03-23T05:47:08;100035.78;;;17.18;57.39
16595;BME280;8410;52.532;13.336;2024-03-23T05:49:37;100030.75;;;17.45;57.15
16595;BME280;8410;52.532;13.336;2024-03-23T05:52:03;100025.81;;;17.35;57.45
16595;BME280;8410;52.532;13.336;2024-03-23T05:54:29;100016.50;;;17.58;56.61
16595;BME280;8410;52.532;13.336;2024-03-23T05:56:55;100014.50;;;17.04;57.25
16595;BME280;8410;52.532;13.336;2024-03-23T05:59:22;100021.47;;;17.03;57.98
16595;BME280;8410;52.532;13.336;2024-03-23T06:01:47;100022.09;;;16.77;57.69
16595;BME280;8410;52.532;13.336;2024-03-23T06:04:14;100010.31;;;17.31;57.56
16595;BME280;8410;52.532;13.336;2024-03-23T06:06:42;100007.09;;;17.54;57.02
16595;BME280;8410;52.532;13.336;2024-03-23T06:09:07;100000.16;;;17.53;56.11
16595;BME280;8410;52.532;13.336;2024-03-23T06:11:34;99997.09;;;17.38;56.07
16595;BME280;8410;52.532;13.336;2024-03-23T06:14:00;99998.97;;;17.33;56.25
16595;BME280;8410;52.532;13.336;2024-03-23T06:16:26;99995.06;;;17.50;56.23
16595;BME280;8410;52.532;13.336;2024-03-23T06:18:53;99988.03;;;16.15;58.55
16595;BME280;8410;52.532;13.336;2024-03-23T06:21:20;99989.91;;;16.47;59.28
16595;BME280;8410;52.532;13.336;2024-03-23T06:23:47;99986.13;;;16.94;58.58
16595;BME280;8410;52.532;13.336;2024-03-23T06:26:16;99986.25;;;16.90;58.79
16595;BME280;8410;52.532;13.336;2024-03-23T06:28:42;99983.47;;;16.62;58.50
16595;BME280;8410;52.532;13.336;2024-03-23T06:31:09;99978.56;;;16.49;59.25
16595;BME280;8410;52.532;13.336;2024-03-23T06:33:34;99982.88;;;16.50;59.61
16595;BME280;8410;52.532;13.336;2024-03-23T06:36:01;99982.28;;;16.39;59.30
16595;BME280;8410;52.532;13.336;2024-03-23T06:38:27;99983.50;;;16.60;58.84
16595;BME280;8410;52.532;13.336;2024-03-23T06:40:55;99983.69;;;16.52;57.47
16595;BME280;8410;52.532;13.336;2024-03-23T06:43:21;99985.38;;;15.32;61.45
16595;BME280;8410;52.532;13.336;2024-03-23T06:45:52;99969.13;;;16.09;59.31
16595;BME280;8410;52.532;13.336;2024-03-23T06:48:18;99971.72;;;15.24;62.25
16595;BME280;8410;52.532;13.336;2024-03-23T06:50:44;99957.56;;;15.84;60.30
16595;BME280;8410;52.532;13.336;2024-03-23T06:53:11;99962.13;;;16.12;60.84
16595;BME280;8410;52.532;13.336;2024-03-23T06:55:38;99965.41;;;16.20;60.93
16595;BME280;8410;52.532;13.336;2024-03-23T06:58:05;99958.97;;;15.57;61.45
16595;BME280;8410;52.532;13.336;2024-03-23T07:00:32;99961.00;;;15.41;62.13
16595;BME280;8410;52.532;13.336;2024-03-23T07:02:58;99958.59;;;14.85;64.14
16595;BME280;8410;52.532;13.336;2024-03-23T07:05:24;99959.63;;;14.21;66.08
16595;BME280;8410;52.532;13.336;2024-03-23T07:07:50;99951.97;;;14.69;64.25
16595;BME280;8410;52.532;13.336;2024-03-23T07:10:17;99957.50;;;13.87;66.63
16595;BME280;8410;52.532;13.336;2024-03-23T07:12:43;99956.63;;;14.45;64.36
16595;BME280;8410;52.532;13.336;2024-03-23T07:15:11;99956.53;;;14.53;64.53
16595;BME280;8410;52.532;13.336;2024-03-23T07:17:36;99957.38;;;13.95;66.96
16595;BME280;8410;52.532;13.336;2024-03-23T07:20:03;99961.75;;;14.50;64.77
16595;BME280;8410;52.532;13.336;2024-03-23T07:22:29;99959.56;;;14.80;64.50
16595;BME280;8410;52.532;13.336;2024-03-23T07:24:56;99946.88;;;15.56;62.40
16595;BME280;8410;52.532;13.336;2024-03-23T07:27:22;99945.44;;;15.42;62.95
16595;BME280;8410;52.532;13.336;2024-03-23T07:29:49;99942.72;;;15.47;63.29
16595;BME280;8410;52.532;13.336;2024-03-23T07:32:17;99947.72;;;15.13;62.22
16595;BME280;8410;52.532;13.336;2024-03-23T07:34:42;99944.13;;;14.73;63.25
16595;BME280;8410;52.532;13.336;2024-03-23T07:37:09;99953.88;;;14.58;64.45
16595;BME280;8410;52.532;13.336;2024-03-23T07:39:35;99942.53;;;15.13;62.24
16595;BME280;8410;52.532;13.336;2024-03-23T07:42:02;99944.53;;;14.98;63.44
16595;BME280;8410;52.532;13.336;2024-03-23T07:44:28;99937.53;;;15.02;63.21
16595;BME280;8410;52.532;13.336;2024-03-23T07:46:55;99936.28;;;15.23;62.43
16595;BME280;8410;52.532;13.336;2024-03-23T07:49:22;99931.44;;;15.90;62.23
16595;BME280;8410;52.532;13.336;2024-03-23T07:51:48;99928.13;;;16.22;62.00
16595;BME280;8410;52.532;13.336;2024-03-23T07:54:14;99917.88;;;17.19;59.72
16595;BME280;8410;52.532;13.336;2024-03-23T07:56:40;99910.00;;;17.81;58.72
16595;BME280;8410;52.532;13.336;2024-03-23T07:59:06;99921.13;;;16.94;59.67
16595;BME280;8410;52.532;13.336;2024-03-23T08:01:33;99924.22;;;16.76;59.29
16595;BME280;8410;52.532;13.336;2024-03-23T08:03:59;99921.28;;;16.90;60.69
16595;BME280;8410;52.532;13.336;2024-03-23T08:06:28;99921.94;;;16.96;59.88
16595;BME280;8410;52.532;13.336;2024-03-23T08:08:55;99926.75;;;14.78;63.36
16595;BME280;8410;52.532;13.336;2024-03-23T08:11:25;99926.91;;;14.71;63.85
16595;BME280;8410;52.532;13.336;2024-03-23T08:13:51;99932.34;;;14.54;63.98
16595;BME280;8410;52.532;13.336;2024-03-23T08:16:18;99932.44;;;14.48;65.04
16595;BME280;8410;52.532;13.336;2024-03-23T08:18:44;99930.31;;;13.57;65.51
16595;BME280;8410;52.532;13.336;2024-03-23T08:21:10;99935.00;;;13.24;66.89
16595;BME280;8410;52.532;13.336;2024-03-23T08:23:37;99928.00;;;13.37;67.35
16595;BME280;8410;52.532;13.336;2024-03-23T08:26:05;99918.41;;;13.43;66.88
16595;BME280;8410;52.532;13.336;2024-03-23T08:28:31;99924.28;;;12.76;68.46
16595;BME280;8410;52.532;13.336;2024-03-23T08:31:00;99928.44;;;12.92;68.06
16595;BME280;8410;52.532;13.336;2024-03-23T08:33:27;99923.94;;;13.13;67.83
16595;BME280;8410;52.532;13.336;2024-03-23T08:35:54;99935.25;;;12.99;66.07
16595;BME280;8410;52.532;13.336;2024-03-23T08:38:21;99929.28;;;12.94;67.74
16595;BME280;8410;52.532;13.336;2024-03-23T08:40:56;99929.25;;;12.97;67.91
16595;BME280;8410;52.532;13.336;2024-03-23T08:43:22;99913.84;;;13.62;67.02
16595;BME280;8410;52.532;13.336;2024-03-23T08:45:48;99921.03;;;13.39;66.40
16595;BME280;8410;52.532;13.336;2024-03-23T08:48:15;99920.34;;;13.23;65.89
16595;BME280;8410;52.532;13.336;2024-03-23T08:50:41;99928.41;;;12.95;66.25
16595;BME280;8410;52.532;13.336;2024-03-23T08:53:08;99929.31;;;12.91;66.12
16595;BME280;8410;52.532;13.336;2024-03-23T08:55:33;99933.72;;;12.83;67.62
16595;BME280;8410;52.532;13.336;2024-03-23T08:58:02;99937.69;;;12.19;67.90
16595;BME280;8410;52.532;13.336;2024-03-23T09:00:27;99931.03;;;12.92;65.84
16595;BME280;8410;52.532;13.336;2024-03-23T09:02:54;99936.66;;;12.43;65.80
16595;BME280;8410;52.532;13.336;2024-03-23T09:05:20;99931.88;;;11.82;67.06
16595;BME280;8410;52.532;13.336;2024-03-23T09:07:47;99935.03;;;12.24;67.36
16595;BME280;8410;52.532;13.336;2024-03-23T09:10:13;99929.28;;;11.80;66.76
16595;BME280;8410;52.532;13.336;2024-03-23T09:12:40;99935.16;;;12.11;66.74
16595;BME280;8410;52.532;13.336;2024-03-23T09:15:07;99933.25;;;12.32;65.96
16595;BME280;8410;52.532;13.336;2024-03-23T09:17:34;99929.84;;;12.33;65.09
16595;BME280;8410;52.532;13.336;2024-03-23T09:19:59;99949.16;;;11.61;65.40
16595;BME280;8410;52.532;13.336;2024-03-23T09:22:26;99953.59;;;11.25;66.75
16595;BME280;8410;52.532;13.336;2024-03-23T09:24:51;99956.00;;;11.68;64.87
16595;BME280;8410;52.532;13.336;2024-03-23T09:27:18;99962.91;;;11.54;66.16
16595;BME280;8410;52.532;13.336;2024-03-23T09:29:43;99949.97;;;11.71;66.03
16595;BME280;8410;52.532;13.336;2024-03-23T09:32:11;99950.69;;;11.99;65.52
16595;BME280;8410;52.532;13.336;2024-03-23T09:34:37;99949.91;;;11.85;65.68
16595;BME280;8410;52.532;13.336;2024-03-23T09:37:04;99954.09;;;12.04;66.81
16595;BME280;8410;52.532;13.336;2024-03-23T09:39:29;99958.63;;;11.52;65.88
16595;BME280;8410;52.532;13.336;2024-03-23T09:41:57;99963.75;;;11.59;67.23
16595;BME280;8410;52.532;13.336;2024-03-23T09:44:24;99962.88;;;11.62;66.01
16595;BME280;8410;52.532;13.336;2024-03-23T09:46:51;99967.25;;;11.43;66.56
16595;BME280;8410;52.532;13.336;2024-03-23T09:49:18;99965.50;;;11.51;66.15
16595;BME280;8410;52.532;13.336;2024-03-23T09:51:45;99957.25;;;12.49;65.18
16595;BME280;8410;52.532;13.336;2024-03-23T09:54:11;99967.59;;;12.45;65.24
16595;BME280;8410;52.532;13.336;2024-03-23T09:56:37;99980.78;;;11.97;65.35
16595;BME280;8410;52.532;13.336;2024-03-23T09:59:03;99983.09;;;12.43;65.35
16595;BME280;8410;52.532;13.336;2024-03-23T10:01:30;99976.63;;;11.68;65.96
16595;BME280;8410;52.532;13.336;2024-03-23T10:03:56;99991.00;;;12.20;64.61
16595;BME280;8410;52.532;13.336;2024-03-23T10:06:24;99989.16;;;12.36;63.15
16595;BME280;8410;52.532;13.336;2024-03-23T10:08:50;99996.84;;;12.45;63.15
16595;BME280;8410;52.532;13.336;2024-03-23T10:11:17;100000.88;;;12.82;61.93
16595;BME280;8410;52.532;13.336;2024-03-23T10:13:43;100017.47;;;12.51;62.51
16595;BME280;8410;52.532;13.336;2024-03-23T10:16:11;100020.31;;;13.21;62.04
16595;BME280;8410;52.532;13.336;2024-03-23T10:18:37;100003.66;;;14.16;60.13
16595;BME280;8410;52.532;13.336;2024-03-23T10:21:08;99998.44;;;15.28;58.06
16595;BME280;8410;52.532;13.336;2024-03-23T10:23:36;100012.97;;;13.66;58.35
16595;BME280;8410;52.532;13.336;2024-03-23T10:26:13;100020.78;;;13.60;59.83
16595;BME280;8410;52.532;13.336;2024-03-23T10:28:50;100011.97;;;14.41;58.08
16595;BME280;8410;52.532;13.336;2024-03-23T10:31:18;100012.22;;;15.30;57.05
16595;BME280;8410;52.532;13.336;2024-03-23T10:33:45;100013.34;;;14.65;58.23
16595;BME280;8410;52.532;13.336;2024-03-23T10:36:11;100017.81;;;15.07;57.29
16595;BME280;8410;52.532;13.336;2024-03-23T10:38:40;100015.81;;;15.22;57.36
16595;BME280;8410;52.532;13.336;2024-03-23T10:41:07;100003.75;;;15.21;56.92
16595;BME280;8410;52.532;13.336;2024-03-23T10:43:36;100009.00;;;16.05;55.24
16595;BME280;8410;52.532;13.336;2024-03-23T10:46:01;100008.59;;;16.24;54.77
16595;BME280;8410;52.532;13.336;2024-03-23T10:48:28;100005.25;;;16.19;54.29
16595;BME280;8410;52.532;13.336;2024-03-23T10:50:54;100005.91;;;16.28;55.09
16595;BME280;8410;52.532;13.336;2024-03-23T10:53:21;100004.13;;;16.30;53.77
16595;BME280;8410;52.532;13.336;2024-03-23T10:55:49;100000.22;;;16.48;53.91
16595;BME280;8410;52.532;13.336;2024-03-23T10:58:17;99994.41;;;16.39;54.35
16595;BME280;8410;52.532;13.336;2024-03-23T11:00:44;100002.00;;;16.46;53.35
16595;BME280;8410;52.532;13.336;2024-03-23T11:03:32;99996.16;;;16.74;52.75
16595;BME280;8410;52.532;13.336;2024-03-23T11:05:59;100002.56;;;16.61;53.53
16595;BME280;8410;52.532;13.336;2024-03-23T11:08:30;100004.44;;;17.24;53.07
16595;BME280;8410;52.532;13.336;2024-03-23T11:13:50;100006.25;;;16.50;52.99
16595;BME280;8410;52.532;13.336;2024-03-23T11:16:21;100009.25;;;17.05;52.12
16595;BME280;8410;52.532;13.336;2024-03-23T11:18:47;100001.94;;;16.87;52.15
16595;BME280;8410;52.532;13.336;2024-03-23T11:24:14;100009.19;;;16.35;52.19
16595;BME280;8410;52.532;13.336;2024-03-23T11:26:40;100008.06;;;16.84;52.19
16595;BME280;8410;52.532;13.336;2024-03-23T11:29:12;100010.78;;;16.03;52.15
16595;BME280;8410;52.532;13.336;2024-03-23T11:31:38;100002.88;;;17.17;50.76
16595;BME280;8410;52.532;13.336;2024-03-23T11:34:05;100003.38;;;17.31;50.35
16595;BME280;8410;52.532;13.336;2024-03-23T11:36:32;100007.69;;;17.32;51.60
16595;BME280;8410;52.532;13.336;2024-03-23T11:38:58;100005.97;;;17.62;50.68
16595;BME280;8410;52.532;13.336;2024-03-23T11:41:25;100016.66;;;17.84;50.95
16595;BME280;8410;52.532;13.336;2024-03-23T11:43:51;100012.69;;;18.01;51.28
16595;BME280;8410;52.532;13.336;2024-03-23T11:46:23;100013.22;;;17.84;52.21
16595;BME280;8410;52.532;13.336;2024-03-23T11:48:50;100016.47;;;17.91;49.89
16595;BME280;8410;52.532;13.336;2024-03-23T11:51:17;100005.03;;;18.24;49.66
16595;BME280;8410;52.532;13.336;2024-03-23T11:53:43;100011.59;;;18.64;50.00
16595;BME280;8410;52.532;13.336;2024-03-23T11:56:09;100020.56;;;18.27;50.62
16595;BME280;8410;52.532;13.336;2024-03-23T11:58:36;100025.91;;;17.95;52.07
16595;BME280;8410;52.532;13.336;2024-03-23T12:01:02;100021.41;;;18.28;50.60
16595;BME280;8410;52.532;13.336;2024-03-23T12:03:31;100034.56;;;17.64;51.77
16595;BME280;8410;52.532;13.336;2024-03-23T12:05:59;100031.50;;;17.17;51.35
16595;BME280;8410;52.532;13.336;2024-03-23T12:08:30;100024.34;;;18.17;51.18
16595;BME280;8410;52.532;13.336;2024-03-23T12:11:04;100026.25;;;18.12;51.83
16595;BME280;8410;52.532;13.336;2024-03-23T12:13:32;100020.13;;;18.69;51.11
16595;BME280;8410;52.532;13.336;2024-03-23T12:16:09;100014.09;;;18.67;51.38
16595;BME280;8410;52.532;13.336;2024-03-23T12:18:37;100027.66;;;17.63;51.97
16595;BME280;8410;52.532;13.336;2024-03-23T12:21:04;100020.25;;;16.82;54.05
16595;BME280;8410;52.532;13.336;2024-03-23T12:23:30;100014.22;;;18.08;52.42
16595;BME280;8410;52.532;13.336;2024-03-23T12:25:56;100003.56;;;18.44;51.03
16595;BME280;8410;52.532;13.336;2024-03-23T12:28:22;100004.56;;;18.40;52.19
16595;BME280;8410;52.532;13.336;2024-03-23T12:30:48;100004.03;;;18.57;51.53
16595;BME280;8410;52.532;13.336;2024-03-23T12:33:15;99998.22;;;19.02;51.22
16595;BME280;8410;52.532;13.336;2024-03-23T12:35:42;100002.50;;;18.49;51.34
16595;BME280;8410;52.532;13.336;2024-03-23T12:38:08;99999.56;;;18.34;50.64
16595;BME280;8410;52.532;13.336;2024-03-23T12:40:34;99995.72;;;18.72;51.08
16595;BME280;8410;52.532;13.336;2024-03-23T12:43:00;99998.06;;;18.25;50.06
16595;BME280;8410;52.532;13.336;2024-03-23T12:45:26;100003.91;;;18.60;49.10
16595;BME280;8410;52.532;13.336;2024-03-23T12:47:53;99997.09;;;18.84;49.59
16595;BME280;8410;52.532;13.336;2024-03-23T12:50:19;99999.75;;;19.07;48.58
16595;BME280;8410;52.532;13.336;2024-03-23T12:52:47;99993.84;;;19.02;48.58
16595;BME280;8410;52.532;13.336;2024-03-23T12:55:13;99990.75;;;18.10;51.40
16595;BME280;8410;52.532;13.336;2024-03-23T12:57:39;99989.09;;;19.13;50.15
16595;BME280;8410;52.532;13.336;2024-03-23T13:00:06;99993.91;;;18.47;49.73
16595;BME280;8410;52.532;13.336;2024-03-23T13:02:35;99996.09;;;19.13;50.47
16595;BME280;8410;52.532;13.336;2024-03-23T13:05:01;99990.44;;;18.73;50.89
16595;BME280;8410;52.532;13.336;2024-03-23T13:07:28;99985.97;;;19.04;50.42
16595;BME280;8410;52.532;13.336;2024-03-23T13:09:55;99994.16;;;19.43;50.16
16595;BME280;8410;52.532;13.336;2024-03-23T13:12:22;99990.94;;;19.60;50.45
16595;BME280;8410;52.532;13.336;2024-03-23T13:14:47;99989.41;;;19.54;49.40
16595;BME280;8410;52.532;13.336;2024-03-23T13:17:14;100000.19;;;18.68;51.83
16595;BME280;8410;52.532;13.336;2024-03-23T13:19:40;99993.91;;;19.26;50.55
16595;BME280;8410;52.532;13.336;2024-03-23T13:22:07;99991.19;;;19.29;51.59
16595;BME280;8410;52.532;13.336;2024-03-23T13:24:33;99983.28;;;20.02;49.45
16595;BME280;8410;52.532;13.336;2024-03-23T13:27:01;99976.13;;;20.08;49.14
16595;BME280;8410;52.532;13.336;2024-03-23T13:29:27;99970.84;;;19.86;49.17
16595;BME280;8410;52.532;13.336;2024-03-23T13:31:53;99967.25;;;19.66;49.55
16595;BME280;8410;52.532;13.336;2024-03-23T13:34:19;99966.31;;;20.13;48.82
16595;BME280;8410;52.532;13.336;2024-03-23T13:36:46;99965.16;;;20.20;48.23
16595;BME280;8410;52.532;13.336;2024-03-23T13:39:12;99962.72;;;19.93;48.26
16595;BME280;8410;52.532;13.336;2024-03-23T13:41:39;99963.59;;;20.60;48.18
16595;BME280;8410;52.532;13.336;2024-03-23T13:44:07;99966.13;;;20.17;47.58
16595;BME280;8410;52.532;13.336;2024-03-23T13:46:36;99963.34;;;20.22;47.15
16595;BME280;8410;52.532;13.336;2024-03-23T13:49:01;99962.97;;;20.31;47.43
16595;BME280;8410;52.532;13.336;2024-03-23T13:51:29;99964.56;;;20.35;47.32
16595;BME280;8410;52.532;13.336;2024-03-23T13:53:54;99971.44;;;19.22;49.13